Time;durP1;ratioP1;P1;durP2;ratioP2;P2;SDS_P1;SDS_P2;PMS_P1;PMS_P2;Temp;Humidity;BMP_temperature;BMP_pressure;BME280_temperature;BME280_humidity;BME280_pressure;Samples;Min_cycle;Max_cycle;Signal;HPM_P1;HPM_P2
2022/07/11 00:01:18;;;;;;;1.70;1.60;;;24.70;47.00;;;;;;5093037;28;20228;-70
2022/07/11 00:03:45;;;;;;;1.58;1.40;;;24.60;48.60;;;;;;5093275;28;20212;-72
2022/07/11 00:06:12;;;;;;;2.13;1.63;;;24.50;48.10;;;;;;5093366;28;20209;-69
2022/07/11 00:08:39;;;;;;;2.00;1.80;;;24.50;46.20;;;;;;5093241;28;20278;-70
2022/07/11 00:11:06;;;;;;;3.42;2.20;;;24.20;80.50;;;;;;5093274;28;20626;-71
2022/07/11 00:13:34;;;;;;;3.95;1.63;;;24.00;49.90;;;;;;5092907;28;20209;-73
2022/07/11 00:16:01;;;;;;;1.75;1.65;;;23.90;51.10;;;;;;5093395;28;20213;-70
2022/07/11 00:18:28;;;;;;;2.70;2.38;;;23.80;50.60;;;;;;5092318;28;20255;-70
2022/07/11 00:20:55;;;;;;;2.83;2.10;;;23.70;50.50;;;;;;5092949;28;20262;-69
2022/07/11 00:23:22;;;;;;;3.45;1.88;;;23.70;51.40;;;;;;5092668;28;20205;-69
2022/07/11 00:25:49;;;;;;;3.35;2.42;;;23.70;53.50;;;;;;5093273;28;20205;-70
2022/07/11 00:28:16;;;;;;;2.95;2.10;;;23.50;52.60;;;;;;5092614;28;20247;-70
2022/07/11 00:30:45;;;;;;;3.10;2.03;;;23.50;53.40;;;;;;5092998;28;20295;-72
2022/07/11 00:33:12;;;;;;;2.05;1.95;;;23.50;54.50;;;;;;5092907;28;20568;-69
2022/07/11 00:35:39;;;;;;;2.22;2.03;;;23.30;53.60;;;;;;5092544;28;20209;-69
2022/07/11 00:38:06;;;;;;;2.15;1.70;;;23.20;56.50;;;;;;5092629;28;20287;-70
2022/07/11 00:40:33;;;;;;;2.25;2.05;;;23.10;55.10;;;;;;5090963;28;20241;-69
2022/07/11 00:43:00;;;;;;;2.35;2.15;;;23.10;57.20;;;;;;5092314;28;20209;-71
2022/07/11 00:45:27;;;;;;;2.88;2.35;;;23.10;57.10;;;;;;5085700;28;20209;-69
2022/07/11 00:47:55;;;;;;;3.83;1.98;;;23.10;57.40;;;;;;5084227;28;20209;-69
2022/07/11 00:50:22;;;;;;;2.42;2.22;;;23.00;56.10;;;;;;5080318;28;20289;-69
2022/07/11 00:52:50;;;;;;;2.25;2.05;;;22.90;57.60;;;;;;5090133;28;20665;-70
2022/07/11 00:55:18;;;;;;;5.82;2.78;;;22.90;89.90;;;;;;5092205;28;20202;-70
2022/07/11 00:57:45;;;;;;;5.07;2.33;;;22.90;57.90;;;;;;5089849;28;20701;-71
2022/07/11 01:00:13;;;;;;;2.33;2.10;;;22.90;58.70;;;;;;5080782;28;20699;-70
2022/07/11 01:02:40;;;;;;;2.13;1.90;;;22.90;59.20;;;;;;5091899;28;20669;-69
2022/07/11 01:05:09;;;;;;;4.45;2.35;;;22.80;59.50;;;;;;5092170;28;20618;-70
2022/07/11 01:07:36;;;;;;;3.50;2.58;;;22.70;60.00;;;;;;5091869;28;20274;-69
2022/07/11 01:10:03;;;;;;;4.15;2.10;;;22.70;60.20;;;;;;5091845;28;20632;-76
2022/07/11 01:12:30;;;;;;;5.10;2.60;;;22.70;61.20;;;;;;5091816;28;20231;-78
2022/07/11 01:14:59;;;;;;;3.00;2.45;;;22.70;61.00;;;;;;5088320;28;20198;-77
2022/07/11 01:17:26;;;;;;;3.53;2.78;;;22.60;61.60;;;;;;5081418;28;20241;-78
2022/07/11 01:19:53;;;;;;;2.63;2.42;;;22.50;61.80;;;;;;5091957;28;20614;-71
2022/07/11 01:22:24;;;;;;;4.40;2.95;;;22.50;65.10;;;;;;5091600;28;20258;-70
2022/07/11 01:24:52;;;;;;;3.55;3.00;;;22.60;66.80;;;;;;5091851;28;20328;-75
2022/07/11 01:27:20;;;;;;;6.35;3.45;;;22.60;64.60;;;;;;5091564;28;20259;-69
2022/07/11 01:29:47;;;;;;;2.78;2.22;;;22.60;66.60;;;;;;5091506;28;20292;-71
2022/07/11 01:32:14;;;;;;;2.35;2.15;;;22.60;65.40;;;;;;5092007;28;20258;-71
2022/07/11 01:34:41;;;;;;;5.70;2.38;;;22.60;65.90;;;;;;5092371;28;20305;-69
2022/07/11 01:37:08;;;;;;;2.00;1.90;;;22.50;65.20;;;;;;5091432;28;20270;-70
2022/07/11 01:39:35;;;;;;;3.15;2.50;;;22.50;65.30;;;;;;5091297;28;20214;-70
2022/07/11 01:42:03;;;;;;;2.30;2.10;;;22.50;66.90;;;;;;5091380;28;20205;-70
2022/07/11 01:44:30;;;;;;;2.20;2.00;;;22.40;66.70;;;;;;5090913;28;20233;-69
2022/07/11 01:46:57;;;;;;;2.40;2.20;;;22.40;67.50;;;;;;5091345;28;20209;-73
2022/07/11 01:49:29;;;;;;;2.60;2.40;;;22.40;71.30;;;;;;5085181;28;20206;-71
2022/07/11 01:51:57;;;;;;;2.35;2.00;;;22.30;66.00;;;;;;5084114;28;20248;-69
2022/07/11 01:54:24;;;;;;;2.45;2.25;;;22.30;65.20;;;;;;5090776;28;20250;-69
2022/07/11 01:56:51;;;;;;;3.33;3.13;;;22.20;64.80;;;;;;5091160;28;20265;-70
2022/07/11 01:59:19;;;;;;;2.60;2.40;;;22.10;65.40;;;;;;5090527;28;20266;-69
2022/07/11 02:01:46;;;;;;;2.72;2.40;;;22.10;66.30;;;;;;5091216;28;20209;-73
2022/07/11 02:04:13;;;;;;;3.90;2.70;;;22.00;66.90;;;;;;5091379;28;20255;-69
2022/07/11 02:06:40;;;;;;;3.60;2.13;;;22.00;67.40;;;;;;5090925;28;20640;-70
2022/07/11 02:09:07;;;;;;;1.85;1.75;;;22.00;66.60;;;;;;5090850;28;20299;-72
2022/07/11 02:11:34;;;;;;;3.40;2.03;;;21.90;66.40;;;;;;5090570;28;20642;-71
2022/07/11 02:14:02;;;;;;;2.53;2.33;;;21.80;67.50;;;;;;5090876;28;20213;-71
2022/07/11 02:16:30;;;;;;;1.73;1.63;;;21.60;67.80;;;;;;5090368;28;20205;-70
2022/07/11 02:18:57;;;;;;;2.47;1.80;;;21.70;70.50;;;;;;5090982;28;20233;-73
2022/07/11 02:21:24;;;;;;;2.20;2.00;;;21.70;69.70;;;;;;5090312;28;20718;-73
2022/07/11 02:23:51;;;;;;;1.83;1.70;;;21.70;68.90;;;;;;5090728;28;20205;-70
2022/07/11 02:26:18;;;;;;;2.05;1.80;;;21.80;69.10;;;;;;5090210;28;20206;-70
2022/07/11 02:28:45;;;;;;;2.72;1.48;;;21.70;69.60;;;;;;5090833;28;20281;-71
2022/07/11 02:31:12;;;;;;;3.60;1.90;;;21.60;70.50;;;;;;5091005;28;20201;-70
2022/07/11 02:33:40;;;;;;;2.85;2.10;;;21.40;69.40;;;;;;5090719;28;20228;-70
2022/07/11 02:36:08;;;;;;;2.38;1.90;;;21.40;70.80;;;;;;5090651;28;20251;-69
2022/07/11 02:38:35;;;;;;;3.95;1.80;;;21.30;70.50;;;;;;5090235;28;20237;-70
2022/07/11 02:41:02;;;;;;;4.20;2.00;;;21.30;72.00;;;;;;5090837;28;20262;-71
2022/07/11 02:43:29;;;;;;;2.15;1.88;;;21.30;72.30;;;;;;5089750;28;20202;-69
2022/07/11 02:45:56;;;;;;;2.30;2.10;;;21.30;71.40;;;;;;5090526;28;20259;-73
2022/07/11 02:48:23;;;;;;;4.03;2.22;;;21.30;74.40;;;;;;5090168;28;20262;-69
2022/07/11 02:50:52;;;;;;;3.72;2.13;;;21.30;73.10;;;;;;5076378;28;20202;-78
2022/07/11 02:53:19;;;;;;;1.85;1.75;;;21.20;72.90;;;;;;5090166;28;20300;-77
2022/07/11 02:55:48;;;;;;;2.85;2.42;;;21.10;76.00;;;;;;5090386;28;20217;-78
2022/07/11 02:58:15;;;;;;;1.92;1.75;;;21.10;73.10;;;;;;5090879;28;20237;-77
2022/07/11 03:00:42;;;;;;;3.00;2.60;;;21.10;76.00;;;;;;5090725;28;20747;-72
2022/07/11 03:03:09;;;;;;;3.28;2.15;;;21.00;75.40;;;;;;5090807;28;20201;-71
2022/07/11 03:05:36;;;;;;;2.92;1.80;;;20.90;75.90;;;;;;5089894;28;20266;-72
2022/07/11 03:08:05;;;;;;;1.90;1.77;;;20.90;74.70;;;;;;5090091;28;20661;-70
2022/07/11 03:10:31;;;;;;;6.68;2.17;;;20.90;75.60;;;;;;5091127;28;20282;-72
2022/07/11 03:12:58;;;;;;;1.88;1.77;;;20.80;77.20;;;;;;5094132;28;20263;-70
2022/07/11 03:15:25;;;;;;;3.50;2.08;;;20.80;76.50;;;;;;5093974;28;20201;-70
2022/07/11 03:17:52;;;;;;;4.30;2.20;;;20.80;76.70;;;;;;5094023;28;20278;-73
2022/07/11 03:20:19;;;;;;;2.55;2.15;;;20.80;77.60;;;;;;5093744;28;20688;-70
2022/07/11 03:22:46;;;;;;;2.28;1.92;;;20.70;79.00;;;;;;5094030;28;20793;-71
2022/07/11 03:25:14;;;;;;;3.67;2.10;;;20.70;78.40;;;;;;5094285;28;20276;-70
2022/07/11 03:27:41;;;;;;;3.30;1.63;;;20.70;79.70;;;;;;5094491;28;20684;-71
2022/07/11 03:30:10;;;;;;;1.92;1.83;;;20.60;79.20;;;;;;5093831;28;20197;-70
2022/07/11 03:32:36;;;;;;;1.75;1.65;;;20.60;78.60;;;;;;5093492;28;20588;-69
2022/07/11 03:37:48;;;;;;;4.45;1.90;;;20.60;81.00;;;;;;5093896;28;20225;-70
2022/07/11 03:40:16;;;;;;;2.45;2.25;;;20.60;80.60;;;;;;5093516;28;20668;-71
2022/07/11 03:42:44;;;;;;;1.95;1.83;;;20.50;80.30;;;;;;5094090;28;20301;-69
2022/07/11 03:45:11;;;;;;;2.13;1.90;;;20.30;81.10;;;;;;5093792;28;20246;-69
2022/07/11 03:47:39;;;;;;;3.13;2.28;;;20.30;83.10;;;;;;5093683;28;20209;-70
2022/07/11 03:50:06;;;;;;;1.75;1.55;;;20.20;81.90;;;;;;5081979;28;20206;-69
2022/07/11 03:52:33;;;;;;;1.90;1.80;;;20.20;84.50;;;;;;5091154;28;20258;-70
2022/07/11 03:55:00;;;;;;;2.15;2.00;;;20.30;83.30;;;;;;5093490;28;20262;-71
2022/07/11 03:57:29;;;;;;;1.75;1.60;;;20.20;83.60;;;;;;5093145;28;20225;-72
2022/07/11 03:59:56;;;;;;;3.45;2.00;;;20.00;84.00;;;;;;5093533;28;20241;-71
2022/07/11 04:02:23;;;;;;;2.13;1.70;;;19.90;85.10;;;;;;5092852;28;20255;-71
2022/07/11 04:04:49;;;;;;;4.18;1.85;;;20.00;86.30;;;;;;5093436;28;20259;-72
2022/07/11 04:07:16;;;;;;;3.35;2.17;;;19.90;86.20;;;;;;5093114;28;20205;-71
2022/07/11 04:09:44;;;;;;;2.13;1.92;;;19.80;85.90;;;;;;5093277;28;20202;-71
2022/07/11 04:12:11;;;;;;;2.63;2.08;;;19.80;89.30;;;;;;5093487;28;20249;-72
2022/07/11 04:14:39;;;;;;;2.58;1.88;;;19.80;88.30;;;;;;5092707;28;20254;-71
2022/07/11 04:17:06;;;;;;;2.00;1.73;;;19.80;89.80;;;;;;5093133;28;20210;-72
2022/07/11 04:19:33;;;;;;;3.38;2.50;;;19.80;88.90;;;;;;5092459;28;20430;-71
2022/07/11 04:22:00;;;;;;;2.95;2.10;;;19.80;90.40;;;;;;5091868;28;20202;-69
2022/07/11 04:24:27;;;;;;;2.47;1.98;;;19.80;90.50;;;;;;5092299;28;20205;-70
2022/07/11 04:26:54;;;;;;;2.85;1.80;;;19.80;90.00;;;;;;5092917;28;20232;-69
2022/07/11 04:29:21;;;;;;;3.13;2.60;;;19.90;90.60;;;;;;5092824;28;20213;-78
2022/07/11 04:31:50;;;;;;;2.80;2.08;;;19.80;90.20;;;;;;5092960;28;20201;-78
2022/07/11 04:34:17;;;;;;;4.80;2.30;;;19.80;91.40;;;;;;5092363;28;20205;-75
2022/07/11 04:36:44;;;;;;;2.50;2.28;;;19.70;90.90;;;;;;5093212;28;20258;-75
2022/07/11 04:39:11;;;;;;;2.75;2.53;;;19.60;91.40;;;;;;5076598;28;20291;-70
2022/07/11 04:41:38;;;;;;;2.45;1.88;;;19.70;91.30;;;;;;5071981;28;20206;-69
2022/07/11 04:44:05;;;;;;;3.45;2.35;;;19.70;91.00;;;;;;5072264;28;20202;-70
2022/07/11 04:46:32;;;;;;;2.65;1.92;;;19.70;91.30;;;;;;5070648;28;20644;-69
2022/07/11 04:49:01;;;;;;;8.07;2.45;;;19.70;91.40;;;;;;5072234;28;20210;-69
2022/07/11 04:51:28;;;;;;;5.65;4.05;;;19.70;92.00;;;;;;5080629;28;20250;-69
2022/07/11 04:53:55;;;;;;;4.00;2.38;;;19.80;92.20;;;;;;5092057;28;20661;-78
2022/07/11 04:56:22;;;;;;;7.25;3.45;;;19.80;93.20;;;;;;5091929;28;20737;-73
2022/07/11 04:58:49;;;;;;;2.40;2.20;;;19.80;92.40;;;;;;5092207;28;20236;-73
2022/07/11 05:01:17;;;;;;;3.05;2.08;;;19.80;92.10;;;;;;5091915;28;20198;-70
2022/07/11 05:03:44;;;;;;;3.22;2.47;;;19.90;92.50;;;;;;5092803;28;20617;-70
2022/07/11 05:06:13;;;;;;;2.80;2.10;;;19.90;92.80;;;;;;5092510;28;20239;-71
2022/07/11 05:08:40;;;;;;;3.03;2.30;;;20.00;93.00;;;;;;5091951;28;20638;-76
2022/07/11 05:11:07;;;;;;;3.83;2.40;;;20.00;92.80;;;;;;5092122;28;20202;-72
2022/07/11 05:13:34;;;;;;;2.13;1.77;;;20.10;93.70;;;;;;5092166;28;20220;-74
2022/07/11 05:16:01;;;;;;;4.15;2.95;;;20.10;93.40;;;;;;5092153;28;20201;-71
2022/07/11 05:18:28;;;;;;;2.25;2.15;;;20.20;92.50;;;;;;5091767;28;20229;-74
2022/07/11 05:20:55;;;;;;;5.10;2.50;;;20.20;93.30;;;;;;5091458;28;20210;-70
2022/07/11 05:23:24;;;;;;;3.35;2.70;;;20.30;93.70;;;;;;5091064;28;20296;-69
2022/07/11 05:25:51;;;;;;;3.20;1.77;;;20.40;93.00;;;;;;5091838;28;20661;-72
2022/07/11 05:28:18;;;;;;;2.10;1.90;;;20.40;93.70;;;;;;5091278;28;20259;-69
2022/07/11 05:30:45;;;;;;;2.85;2.55;;;20.40;92.90;;;;;;5091667;28;20676;-70
2022/07/11 05:33:11;;;;;;;6.75;2.80;;;20.50;93.40;;;;;;5091598;28;20251;-69
2022/07/11 05:35:38;;;;;;;6.68;2.70;;;20.40;93.30;;;;;;5091086;28;20290;-72
2022/07/11 05:38:05;;;;;;;5.45;2.65;;;20.40;94.20;;;;;;5091342;28;20732;-73
2022/07/11 05:40:34;;;;;;;5.50;2.92;;;20.40;94.30;;;;;;5091389;28;20646;-71
2022/07/11 05:43:01;;;;;;;6.45;2.88;;;20.50;93.70;;;;;;5091765;28;20237;-70
2022/07/11 05:45:28;;;;;;;6.32;3.47;;;20.50;93.90;;;;;;5090947;28;20205;-69
2022/07/11 05:47:55;;;;;;;4.78;3.20;;;20.50;94.10;;;;;;5091311;28;20205;-69
2022/07/11 05:50:22;;;;;;;4.28;2.75;;;20.60;93.80;;;;;;5076460;28;20275;-69
2022/07/11 05:52:49;;;;;;;3.22;2.97;;;20.70;93.60;;;;;;5077345;28;20206;-69
2022/07/11 05:55:16;;;;;;;4.57;2.88;;;20.70;94.50;;;;;;5090953;28;20699;-70
2022/07/11 05:57:44;;;;;;;6.22;3.78;;;20.80;93.70;;;;;;5091303;28;20206;-70
2022/07/11 06:00:13;;;;;;;4.82;3.17;;;20.80;93.90;;;;;;5091469;28;20689;-70
2022/07/11 06:02:42;;;;;;;7.95;3.40;;;20.90;94.00;;;;;;5090800;28;20201;-70
2022/07/11 06:05:11;;;;;;;6.55;2.85;;;21.00;94.30;;;;;;5090939;28;20212;-70
2022/07/11 06:10:22;;;;;;;5.93;2.70;;;21.30;94.50;;;;;;5090809;28;20286;-71
2022/07/11 06:12:50;;;;;;;6.85;3.40;;;21.20;93.10;;;;;;5090969;28;20210;-78
2022/07/11 06:15:17;;;;;;;4.28;2.47;;;21.20;93.30;;;;;;5090774;28;20259;-78
2022/07/11 06:17:45;;;;;;;9.93;2.72;;;21.40;93.50;;;;;;5092442;28;20209;-77
2022/07/11 06:20:12;;;;;;;3.72;2.30;;;21.60;93.80;;;;;;5091679;28;20266;-69
2022/07/11 06:22:39;;;;;;;4.78;2.70;;;21.70;93.50;;;;;;5090713;28;20586;-71
2022/07/11 06:25:07;;;;;;;6.90;2.70;;;21.90;93.20;;;;;;5090739;28;20661;-70
2022/07/11 06:27:34;;;;;;;5.00;2.65;;;21.90;94.10;;;;;;5090279;28;20288;-78
2022/07/11 06:30:02;;;;;;;4.65;2.60;;;22.00;93.90;;;;;;5090740;28;20209;-69
2022/07/11 06:32:31;;;;;;;3.70;2.60;;;22.20;93.60;;;;;;5090389;28;20772;-74
2022/07/11 06:34:58;;;;;;;5.43;2.38;;;22.30;92.80;;;;;;5090451;28;20210;-70
2022/07/11 06:37:25;;;;;;;6.47;2.95;;;22.40;92.00;;;;;;5090274;28;20638;-70
2022/07/11 06:39:52;;;;;;;10.25;3.78;;;22.30;91.50;;;;;;5090304;28;20233;-70
2022/07/11 06:42:19;;;;;;;14.10;3.58;;;22.30;91.60;;;;;;5090206;28;20197;-70
2022/07/11 06:44:45;;;;;;;5.32;3.17;;;22.30;91.50;;;;;;5090395;28;20202;-72
2022/07/11 06:47:14;;;;;;;4.32;2.90;;;22.50;91.80;;;;;;5090759;28;20250;-70
2022/07/11 06:49:41;;;;;;;8.10;3.35;;;22.80;92.10;;;;;;5082239;28;20213;-71
2022/07/11 06:52:08;;;;;;;3.60;3.03;;;23.00;91.90;;;;;;5084962;28;20206;-71
2022/07/11 06:54:35;;;;;;;4.97;3.10;;;23.10;91.70;;;;;;5090216;28;20217;-71
2022/07/11 06:57:02;;;;;;;3.25;2.70;;;23.20;92.30;;;;;;5090509;28;20573;-70
2022/07/11 06:59:28;;;;;;;8.43;2.00;;;23.40;91.40;;;;;;5089660;28;20646;-71
2022/07/11 07:01:57;;;;;;;5.15;2.42;;;23.60;91.10;;;;;;5090564;28;20205;-70
2022/07/11 07:04:26;;;;;;;7.35;2.83;;;23.80;91.20;;;;;;5089662;28;20210;-70
2022/07/11 07:06:52;;;;;;;3.95;2.72;;;23.80;91.30;;;;;;5090541;28;20213;-69
2022/07/11 07:09:19;;;;;;;6.50;2.15;;;23.90;90.30;;;;;;5089701;28;20205;-70
2022/07/11 07:11:47;;;;;;;3.25;2.00;;;24.10;89.60;;;;;;5090461;28;20213;-69
2022/07/11 07:14:14;;;;;;;3.65;1.98;;;24.40;90.10;;;;;;5090685;28;20269;-71
2022/07/11 07:16:41;;;;;;;4.43;2.00;;;24.60;91.30;;;;;;5090698;28;20209;-70
2022/07/11 07:19:08;;;;;;;11.75;2.13;;;24.90;90.40;;;;;;5089989;28;20225;-70
2022/07/11 07:21:36;;;;;;;2.13;1.83;;;25.70;90.50;;;;;;5089748;28;20213;-69
2022/07/11 07:24:03;;;;;;;4.68;2.50;;;25.30;87.70;;;;;;5090208;28;20210;-70
2022/07/11 07:26:30;;;;;;;2.72;2.40;;;25.30;87.80;;;;;;5089643;28;20233;-70
2022/07/11 07:28:57;;;;;;;2.65;1.80;;;25.20;86.20;;;;;;5090176;28;20209;-71
2022/07/11 07:31:25;;;;;;;3.65;1.98;;;25.50;86.20;;;;;;5089541;28;20301;-70
2022/07/11 07:33:52;;;;;;;3.85;2.28;;;25.50;86.80;;;;;;5090115;28;20197;-71
2022/07/11 07:36:18;;;;;;;2.13;1.58;;;25.70;85.10;;;;;;5089509;28;20664;-71
2022/07/11 07:38:47;;;;;;;2.50;1.85;;;25.80;87.30;;;;;;5090145;28;20225;-69
2022/07/11 07:41:14;;;;;;;4.03;2.03;;;26.10;85.70;;;;;;5090417;28;20211;-71
2022/07/11 07:43:42;;;;;;;3.97;2.10;;;26.20;84.40;;;;;;5090031;28;20205;-69
2022/07/11 07:46:10;;;;;;;3.25;1.70;;;26.20;84.30;;;;;;5089737;28;20206;-70
2022/07/11 07:48:37;;;;;;;2.42;2.10;;;26.30;83.80;;;;;;5089769;28;20271;-70
2022/07/11 07:51:05;;;;;;;5.85;2.10;;;26.40;84.10;;;;;;5075710;28;20253;-69
2022/07/11 07:53:32;;;;;;;4.35;2.22;;;26.30;83.00;;;;;;5089692;28;20209;-80
2022/07/11 07:56:00;;;;;;;1.60;1.50;;;26.40;81.80;;;;;;5090015;28;20259;-80
2022/07/11 07:58:27;;;;;;;3.15;1.92;;;26.50;83.20;;;;;;5093180;28;20201;-79
2022/07/11 08:03:38;;;;;;;2.30;2.10;;;27.00;82.30;;;;;;5093018;28;20204;-71
2022/07/11 08:06:05;;;;;;;2.88;1.95;;;27.10;81.50;;;;;;5093504;28;20267;-70
2022/07/11 08:08:32;;;;;;;3.88;2.05;;;27.20;79.90;;;;;;5092800;28;20630;-69
2022/07/11 08:11:02;;;;;;;4.53;2.10;;;27.40;81.30;;;;;;5093256;28;20205;-71
2022/07/11 08:13:29;;;;;;;3.90;1.67;;;28.40;81.50;;;;;;5092540;28;20221;-70
2022/07/11 08:15:56;;;;;;;2.45;1.65;;;29.60;82.20;;;;;;5092957;28;20198;-70
2022/07/11 08:18:23;;;;;;;2.88;2.17;;;28.90;78.60;;;;;;5093206;28;20201;-70
2022/07/11 08:20:50;;;;;;;3.22;2.08;;;28.80;80.00;;;;;;5093051;28;20271;-70
2022/07/11 08:23:17;;;;;;;2.20;1.83;;;28.80;78.30;;;;;;5092848;28;20258;-71
2022/07/11 08:25:44;;;;;;;2.55;1.73;;;28.80;77.70;;;;;;5093080;28;20685;-69
2022/07/11 08:28:13;;;;;;;2.15;1.95;;;29.10;77.60;;;;;;5093425;28;20206;-69
2022/07/11 08:30:40;;;;;;;5.10;1.90;;;29.20;78.90;;;;;;5092405;28;20296;-70
2022/07/11 08:33:07;;;;;;;5.45;1.73;;;29.20;77.50;;;;;;5092992;28;20258;-69
2022/07/11 08:35:34;;;;;;;2.33;1.65;;;29.00;77.50;;;;;;5092628;28;20206;-69
2022/07/11 08:38:01;;;;;;;2.03;1.73;;;29.20;77.30;;;;;;5092860;28;20247;-71
2022/07/11 08:40:28;;;;;;;3.58;1.73;;;29.10;75.50;;;;;;5092375;28;20237;-70
2022/07/11 08:42:58;;;;;;;2.20;1.80;;;29.10;76.00;;;;;;5092647;28;20224;-69
2022/07/11 08:45:31;;;;;;;1.50;1.40;;;29.40;76.30;;;;;;5091910;28;20202;-69
2022/07/11 08:47:59;;;;;;;1.77;1.67;;;29.60;77.20;;;;;;5092335;28;20201;-71
2022/07/11 08:50:27;;;;;;;2.40;2.20;;;29.60;75.40;;;;;;5077869;28;20677;-80
2022/07/11 08:52:55;;;;;;;1.55;1.45;;;29.90;73.80;;;;;;5092611;28;20210;-68
2022/07/11 08:55:22;;;;;;;5.10;1.55;;;30.10;74.80;;;;;;5092082;28;20628;-70
2022/07/11 08:57:49;;;;;;;1.85;1.73;;;30.50;75.80;;;;;;5092124;28;20209;-70
2022/07/11 09:00:16;;;;;;;2.35;1.70;;;31.10;74.00;;;;;;5091948;28;20229;-73
2022/07/11 09:02:45;;;;;;;2.55;1.63;;;31.00;73.70;;;;;;5092642;28;20255;-71
2022/07/11 09:05:12;;;;;;;2.17;1.67;;;31.60;74.10;;;;;;5092678;28;20208;-70
2022/07/11 09:07:44;;;;;;;1.67;1.58;;;31.50;72.80;;;;;;5091704;28;20209;-69
2022/07/11 09:10:12;;;;;;;1.60;1.50;;;31.50;73.10;;;;;;5092261;28;20673;-69
2022/07/11 09:12:59;;;;;;;2.75;1.65;;;32.50;73.90;;;;;;5091646;28;20271;-69
2022/07/11 09:15:37;;;;;;;1.58;1.48;;;32.90;73.70;;;;;;5091706;28;20632;-70
2022/07/11 09:18:07;;;;;;;3.10;1.65;;;33.00;74.50;;;;;;5092282;28;20601;-70
2022/07/11 09:26:26;;;;;;;2.40;1.85;;;34.50;78.80;;;;;;5091528;28;20691;-69
2022/07/11 09:29:03;;;;;;;1.77;1.13;;;34.00;77.10;;;;;;5091592;28;20626;-69
2022/07/11 09:31:32;;;;;;;1.58;1.48;;;33.20;74.00;;;;;;5091758;28;20236;-70
2022/07/11 09:34:05;;;;;;;1.95;1.85;;;33.30;76.40;;;;;;5092252;28;20273;-85
2022/07/11 09:36:44;;;;;;;2.03;1.83;;;33.70;77.70;;;;;;5091674;28;20204;-84
2022/07/11 09:39:13;;;;;;;2.55;1.35;;;36.00;85.70;;;;;;5092583;28;20311;-83
2022/07/11 09:41:41;;;;;;;2.92;1.77;;;37.80;91.30;;;;;;5091831;28;20209;-70
2022/07/11 09:44:16;;;;;;;1.83;1.73;;;38.60;96.10;;;;;;5091685;28;20197;-69
2022/07/11 09:46:45;;;;;;;1.50;1.40;;;38.80;99.50;;;;;;5091721;28;20208;-75
2022/07/11 09:49:14;;;;;;;1.55;1.45;;;41.80;99.90;;;;;;5087520;28;20208;-71
2022/07/11 09:51:41;;;;;;;2.45;1.40;;;41.60;99.90;;;;;;5082233;28;20209;-70
2022/07/11 09:54:10;;;;;;;1.60;1.50;;;43.30;99.90;;;;;;5091133;28;20258;-77
2022/07/11 09:56:40;;;;;;;1.92;1.60;;;43.80;99.90;;;;;;5090753;28;20254;-71
2022/07/11 09:59:09;;;;;;;2.13;2.00;;;42.60;99.90;;;;;;5091190;28;20238;-76
2022/07/11 10:01:37;;;;;;;1.98;1.40;;;40.60;92.60;;;;;;5090900;28;20212;-70
2022/07/11 10:04:05;;;;;;;1.80;1.70;;;36.80;86.10;;;;;;5091038;28;20209;-71
2022/07/11 10:06:34;;;;;;;1.85;1.60;;;36.80;82.50;;;;;;5090777;28;20270;-72
2022/07/11 10:09:04;;;;;;;1.90;1.80;;;37.50;85.80;;;;;;5091397;28;20291;-69
2022/07/11 10:11:32;;;;;;;3.63;1.95;;;38.10;91.90;;;;;;5090348;28;20294;-70
2022/07/11 10:14:00;;;;;;;1.88;1.75;;;41.90;97.60;;;;;;5091198;28;20205;-74
2022/07/11 10:16:39;;;;;;;4.93;2.00;;;41.80;99.70;;;;;;5090569;28;20207;-70
2022/07/11 10:19:20;;;;;;;3.50;1.52;;;42.40;99.90;;;;;;5090986;28;20208;-74
2022/07/11 10:21:56;;;;;;;1.42;1.42;;;42.00;95.70;;;;;;5090255;28;20284;-73
2022/07/11 10:24:37;;;;;;;1.98;1.88;;;41.40;94.70;;;;;;5090638;28;20208;-72
2022/07/11 10:27:10;;;;;;;1.60;1.50;;;43.90;99.60;;;;;;5078474;28;20667;-71
2022/07/11 10:29:42;;;;;;;1.60;1.50;;;44.70;99.90;;;;;;5090244;28;20258;-72
2022/07/11 10:32:11;;;;;;;3.30;1.83;;;43.80;99.90;;;;;;5091286;28;20200;-71
2022/07/11 10:34:39;;;;;;;2.38;1.40;;;43.80;93.70;;;;;;5090472;28;20204;-71
2022/07/11 10:37:09;;;;;;;1.98;1.88;;;44.40;95.50;;;;;;5091070;28;20208;-71
2022/07/11 10:39:37;;;;;;;1.67;1.58;;;44.20;99.90;;;;;;5090481;28;20679;-70
2022/07/11 10:42:06;;;;;;;1.70;1.60;;;42.40;86.60;;;;;;5090441;28;20297;-70
2022/07/11 10:44:48;;;;;;;3.53;1.67;;;38.00;66.90;;;;;;5090409;28;20211;-70
2022/07/11 10:47:36;;;;;;;3.22;1.77;;;36.00;59.70;;;;;;5089357;28;20205;-70
2022/07/11 10:50:09;;;;;;;3.05;2.22;;;34.90;83.80;;;;;;5079093;28;20296;-70
2022/07/11 10:52:40;;;;;;;1.83;1.73;;;34.70;51.80;;;;;;5088436;28;20208;-71
2022/07/11 10:55:22;;;;;;;1.73;1.63;;;34.30;51.30;;;;;;5090362;28;20618;-70
2022/07/11 10:58:07;;;;;;;1.75;1.65;;;33.90;78.20;;;;;;5090310;28;20732;-70
2022/07/11 11:00:34;;;;;;;5.20;2.03;;;33.90;47.80;;;;;;5090040;28;20589;-70
2022/07/11 11:03:04;;;;;;;1.27;1.25;;;34.20;49.70;;;;;;5090376;28;20205;-69
2022/07/11 11:05:48;;;;;;;1.85;1.58;;;34.40;51.70;;;;;;5090229;28;20215;-70
2022/07/11 11:08:47;;;;;;;1.95;1.83;;;33.90;48.90;;;;;;5090586;28;20216;-70
2022/07/11 11:11:38;;;;;;;2.55;1.50;;;33.60;48.00;;;;;;5089948;28;20209;-71
2022/07/11 11:14:25;;;;;;;1.67;1.58;;;34.10;49.90;;;;;;5090522;28;20246;-83
2022/07/11 11:16:53;;;;;;;2.17;1.73;;;34.10;48.30;;;;;;5090547;28;20230;-84
2022/07/11 11:19:54;;;;;;;3.85;1.80;;;34.10;49.50;;;;;;5090217;28;20282;-84
2022/07/11 11:22:23;;;;;;;1.90;1.70;;;34.10;48.80;;;;;;5090827;28;20234;-71
2022/07/11 11:24:53;;;;;;;1.45;1.35;;;34.70;50.50;;;;;;5090144;28;20270;-70
2022/07/11 11:27:21;;;;;;;4.15;1.83;;;35.20;52.10;;;;;;5089883;28;20209;-70
2022/07/11 11:29:52;;;;;;;2.55;1.75;;;35.10;51.30;;;;;;5089949;28;20244;-69
2022/07/11 11:32:21;;;;;;;3.28;2.22;;;35.10;50.10;;;;;;5092294;28;20205;-71
2022/07/11 11:34:49;;;;;;;2.95;1.85;;;34.70;50.60;;;;;;5094092;28;20204;-70
2022/07/11 11:37:18;;;;;;;2.08;1.88;;;34.80;51.10;;;;;;5093885;28;20201;-70
2022/07/11 11:39:46;;;;;;;2.03;1.83;;;34.90;51.30;;;;;;5093577;28;20227;-70
2022/07/11 11:42:16;;;;;;;2.65;1.60;;;35.20;52.50;;;;;;5094326;28;20231;-71
2022/07/11 11:44:56;;;;;;;2.47;2.10;;;35.30;53.10;;;;;;5094315;28;20282;-70
2022/07/11 11:47:23;;;;;;;2.22;1.65;;;34.80;51.90;;;;;;5093267;28;20259;-70
2022/07/11 11:49:51;;;;;;;3.70;1.70;;;34.70;49.40;;;;;;5084251;28;20216;-71
2022/07/11 11:52:19;;;;;;;1.70;1.60;;;34.40;47.80;;;;;;5088644;28;20216;-70
2022/07/11 11:54:52;;;;;;;4.95;2.25;;;34.50;48.70;;;;;;5093599;28;20681;-71
2022/07/11 11:57:23;;;;;;;8.77;2.30;;;34.90;50.20;;;;;;5093285;28;20209;-71
2022/07/11 11:59:51;;;;;;;1.70;1.50;;;35.00;51.20;;;;;;5093631;28;20236;-70
2022/07/11 12:02:29;;;;;;;1.85;1.75;;;34.90;50.10;;;;;;5093428;28;20240;-70
2022/07/11 12:04:57;;;;;;;1.23;1.13;;;35.30;51.50;;;;;;5093672;28;20200;-76
2022/07/11 12:07:29;;;;;;;2.10;2.00;;;35.40;52.00;;;;;;5092583;28;20201;-70
2022/07/11 12:09:59;;;;;;;2.67;1.85;;;35.40;50.50;;;;;;5093569;28;20246;-70
2022/07/11 12:12:52;;;;;;;1.95;1.83;;;35.40;50.70;;;;;;5093150;28;20219;-70
2022/07/11 12:15:31;;;;;;;1.30;1.20;;;35.10;49.60;;;;;;5082000;28;20212;-69
2022/07/11 12:18:03;;;;;;;1.88;1.17;;;35.30;50.60;;;;;;5093405;28;20209;-70
2022/07/11 12:20:38;;;;;;;2.72;1.48;;;35.40;50.20;;;;;;5092872;28;20318;-70
2022/07/11 12:23:07;;;;;;;1.33;1.23;;;35.50;79.70;;;;;;5092963;28;20204;-71
2022/07/11 12:25:34;;;;;;;2.10;1.90;;;35.00;47.40;;;;;;5092739;28;20266;-70
2022/07/11 12:28:03;;;;;;;1.83;1.63;;;35.20;49.00;;;;;;5092794;28;20209;-71
2022/07/11 12:30:30;;;;;;;2.90;1.85;;;35.60;50.90;;;;;;5092726;28;20568;-69
2022/07/11 12:33:09;;;;;;;8.27;1.52;;;35.70;50.10;;;;;;5093010;28;20209;-70
2022/07/11 12:35:36;;;;;;;2.38;1.40;;;36.10;51.00;;;;;;5092595;28;20286;-71
2022/07/11 12:38:04;;;;;;;1.27;1.27;;;36.20;53.50;;;;;;5092477;28;20254;-75
2022/07/11 12:40:31;;;;;;;1.70;1.60;;;36.40;53.20;;;;;;5092334;28;20225;-70
2022/07/11 12:42:58;;;;;;;2.92;1.65;;;36.30;52.40;;;;;;5091923;28;20205;-70
2022/07/11 12:45:26;;;;;;;1.73;1.63;;;36.30;54.50;;;;;;5091990;28;20660;-70
2022/07/11 12:47:53;;;;;;;1.35;1.25;;;36.00;51.60;;;;;;5093033;28;20205;-72
2022/07/11 12:50:22;;;;;;;1.60;1.50;;;35.80;50.30;;;;;;5078376;28;20293;-71
2022/07/11 12:52:50;;;;;;;1.63;1.52;;;35.80;49.70;;;;;;5092482;28;20684;-70
2022/07/11 12:55:22;;;;;;;4.45;1.88;;;35.90;51.50;;;;;;5092188;28;20213;-82
2022/07/11 12:58:02;;;;;;;1.85;1.60;;;35.90;52.20;;;;;;5092207;28;20724;-82
2022/07/11 13:00:32;;;;;;;1.30;1.30;;;35.90;49.60;;;;;;5092535;28;20723;-83
2022/07/11 13:02:59;;;;;;;1.92;1.40;;;35.80;49.80;;;;;;5092611;28;20295;-70
2022/07/11 13:05:26;;;;;;;2.03;1.48;;;35.70;49.60;;;;;;5091686;28;20204;-69
2022/07/11 13:11:00;;;;;;;1.50;1.40;;;35.70;46.70;;;;;;5092065;28;20216;-71